Slangerup, Denmark
Current Conditions -  °F | °C
As of 12:20 PM on Friday 28 Nov 2014 (Local Time) from EKRK Reporting Station
Broken Clouds Broken Clouds  
Wind Chill: 32°   Ceiling: 4900
Heat Index: 41°   Visibility: 6mi
Dew Point: 34°   Wind: 21mph
Humidity: 76%   Direction: 100°E
Pressure: 30.24"   Gusts: 32mph
Location:  55.85°N, 12.18°E
Report Text: EKRK 281120Z AUTO 10018G28KT 9999NDV FEW022/// SCT042///BKN049/// 05/01 Q1024
Loading
Personal Weather Stations






























Interactive Weather Map New forecast layout! Learn more

10-Day Weather Forecast

Advertisements
Track Severe Weather on mobile